Time;durP1;ratioP1;P1;durP2;ratioP2;P2;SDS_P1;SDS_P2;PMS_P1;PMS_P2;Temp;Humidity;BMP_temperature;BMP_pressure;BME280_temperature;BME280_humidity;BME280_pressure;Samples;Min_cycle;Max_cycle;Signal;HPM_P1;HPM_P2
2022/02/18 00:00:17;;;;;;;;;;;12.10;95.50;;;;;;5079262;28;19951;-79
2022/02/18 00:02:43;;;;;;;;;;;12.20;95.60;;;;;;5079087;28;19934;-84
2022/02/18 00:05:09;;;;;;;;;;;12.20;95.80;;;;;;5078639;28;20375;-80
2022/02/18 00:07:34;;;;;;;;;;;12.20;96.00;;;;;;5077881;28;19957;-84
2022/02/18 00:10:00;;;;;;;;;;;12.20;95.70;;;;;;5079068;28;19908;-82
2022/02/18 00:12:26;;;;;;;;;;;12.20;95.70;;;;;;5079398;28;19916;-80
2022/02/18 00:14:52;;;;;;;;;;;12.30;95.90;;;;;;5078901;28;19959;-79
2022/02/18 00:17:17;;;;;;;;;;;12.20;95.60;;;;;;5078870;28;19919;-79
2022/02/18 00:19:43;;;;;;;;;;;12.20;96.00;;;;;;5078380;28;19908;-77
2022/02/18 00:22:08;;;;;;;;;;;12.20;96.00;;;;;;5078885;28;19909;-76
2022/02/18 00:24:34;;;;;;;;;;;12.20;96.20;;;;;;5077048;28;19939;-76
2022/02/18 00:27:00;;;;;;;;;;;12.20;96.20;;;;;;5077594;28;19978;-77
2022/02/18 00:29:25;;;;;;;;;;;12.20;96.00;;;;;;5068760;28;20386;-77
2022/02/18 00:31:51;;;;;;;;;;;12.20;95.90;;;;;;5060168;28;20397;-78
2022/02/18 00:34:17;;;;;;;;;;;12.20;96.10;;;;;;5068925;28;19916;-77
2022/02/18 00:36:42;;;;;;;;;;;12.20;96.10;;;;;;5069784;28;20031;-77
2022/02/18 00:39:08;;;;;;;;;;;12.20;96.10;;;;;;5076735;28;19948;-78
2022/02/18 00:41:34;;;;;;;;;;;12.20;96.10;;;;;;5072845;28;19908;-77
2022/02/18 00:43:59;;;;;;;;;;;12.20;96.30;;;;;;5078419;28;19912;-77
2022/02/18 00:46:25;;;;;;;;;;;12.20;96.20;;;;;;5078129;28;20011;-78
2022/02/18 00:48:50;;;;;;;;;;;12.20;96.30;;;;;;5078491;28;19916;-78
2022/02/18 00:51:16;;;;;;;;;;;12.20;96.50;;;;;;5077781;28;19909;-78
2022/02/18 00:53:42;;;;;;;;;;;12.20;96.50;;;;;;5076726;28;20299;-78
2022/02/18 00:56:08;;;;;;;;;;;12.20;96.30;;;;;;5077710;28;19975;-78
2022/02/18 00:58:33;;;;;;;;;;;12.20;96.20;;;;;;5077068;28;19913;-78
2022/02/18 01:00:59;;;;;;;;;;;12.20;96.20;;;;;;5076516;28;20257;-78
2022/02/18 01:03:24;;;;;;;;;;;12.20;96.50;;;;;;5075566;28;20110;-78
2022/02/18 01:05:50;;;;;;;;;;;12.20;96.90;;;;;;5076559;28;19958;-78
2022/02/18 01:08:17;;;;;;;;;;;12.20;96.70;;;;;;5077973;28;20004;-77
2022/02/18 01:10:43;;;;;;;;;;;12.20;96.90;;;;;;5077731;28;19958;-78
2022/02/18 01:13:08;;;;;;;;;;;12.20;96.80;;;;;;5078038;28;19912;-78
2022/02/18 01:15:34;;;;;;;;;;;12.20;97.00;;;;;;5077971;28;19909;-78
2022/02/18 01:17:59;;;;;;;;;;;12.20;97.00;;;;;;5077243;28;19964;-78
2022/02/18 01:20:25;;;;;;;;;;;12.20;97.10;;;;;;5077427;28;19919;-78
2022/02/18 01:22:51;;;;;;;;;;;12.20;97.20;;;;;;5076247;28;19927;-77
2022/02/18 01:25:17;;;;;;;;;;;12.20;97.20;;;;;;5076576;28;20287;-78
2022/02/18 01:27:43;;;;;;;;;;;12.30;97.50;;;;;;5077796;28;19908;-79
2022/02/18 01:30:09;;;;;;;;;;;12.30;97.10;;;;;;5077945;28;19931;-79
2022/02/18 01:32:36;;;;;;;;;;;12.20;96.90;;;;;;5077635;28;19931;-79
2022/02/18 01:35:02;;;;;;;;;;;12.30;96.90;;;;;;5077493;28;19908;-78
2022/02/18 01:37:27;;;;;;;;;;;12.30;97.00;;;;;;5076236;28;19999;-79
2022/02/18 01:39:53;;;;;;;;;;;12.30;96.70;;;;;;5069860;28;19951;-78
2022/02/18 01:42:19;;;;;;;;;;;12.30;96.40;;;;;;5074310;28;19916;-79
2022/02/18 01:44:46;;;;;;;;;;;12.30;96.30;;;;;;5077697;28;19917;-79
2022/02/18 01:47:19;;;;;;;;;;;12.30;96.50;;;;;;5077601;28;19915;-80
2022/02/18 01:49:46;;;;;;;;;;;12.30;96.20;;;;;;5077463;28;19909;-78
2022/02/18 01:52:13;;;;;;;;;;;12.30;96.30;;;;;;5077145;28;20007;-80
2022/02/18 01:54:39;;;;;;;;;;;12.30;96.10;;;;;;5075698;28;20337;-80
2022/02/18 01:57:05;;;;;;;;;;;12.30;96.10;;;;;;5076551;28;19924;-78
2022/02/18 01:59:30;;;;;;;;;;;12.30;96.40;;;;;;5076972;28;19916;-80
2022/02/18 02:01:58;;;;;;;;;;;12.30;96.30;;;;;;5076596;28;19918;-79
2022/02/18 02:04:25;;;;;;;;;;;12.30;96.30;;;;;;5076623;28;19944;-79
2022/02/18 02:06:51;;;;;;;;;;;12.30;96.10;;;;;;5077525;28;19916;-78
2022/02/18 02:09:17;;;;;;;;;;;12.30;96.50;;;;;;5064527;28;19909;-77
2022/02/18 02:11:43;;;;;;;;;;;12.40;96.60;;;;;;5069424;28;19966;-77
2022/02/18 02:14:09;;;;;;;;;;;12.40;96.40;;;;;;5076489;28;19927;-79
2022/02/18 02:16:34;;;;;;;;;;;12.30;96.10;;;;;;5077578;28;20042;-79
2022/02/18 02:19:00;;;;;;;;;;;12.30;96.30;;;;;;5075693;28;19965;-78
2022/02/18 02:21:28;;;;;;;;;;;12.40;96.40;;;;;;5065489;28;20015;-78
2022/02/18 02:23:54;;;;;;;;;;;12.40;96.20;;;;;;5076886;28;19919;-79
2022/02/18 02:26:20;;;;;;;;;;;12.30;96.30;;;;;;5067533;28;20007;-78
2022/02/18 02:28:45;;;;;;;;;;;12.40;96.40;;;;;;5073048;28;19913;-78
2022/02/18 02:31:11;;;;;;;;;;;12.40;96.50;;;;;;5076730;28;20291;-79
2022/02/18 02:33:37;;;;;;;;;;;12.40;96.50;;;;;;5076134;28;20390;-77
2022/02/18 02:36:02;;;;;;;;;;;12.40;96.60;;;;;;5076839;28;19909;-77
2022/02/18 02:38:28;;;;;;;;;;;12.40;96.70;;;;;;5076637;28;19939;-79
2022/02/18 02:40:54;;;;;;;;;;;12.40;96.70;;;;;;5070627;28;19916;-79
2022/02/18 02:43:19;;;;;;;;;;;12.40;96.40;;;;;;5076032;28;19917;-78
2022/02/18 02:45:45;;;;;;;;;;;12.40;96.60;;;;;;5074371;28;19917;-78
2022/02/18 02:48:10;;;;;;;;;;;12.40;96.40;;;;;;5076042;28;19935;-78
2022/02/18 02:50:36;;;;;;;;;;;12.40;96.50;;;;;;5076672;28;19934;-78
2022/02/18 02:53:02;;;;;;;;;;;12.40;96.50;;;;;;5079811;28;19912;-79
2022/02/18 02:55:28;;;;;;;;;;;12.40;96.50;;;;;;5079785;28;20363;-79
2022/02/18 02:57:53;;;;;;;;;;;12.40;96.50;;;;;;5066469;28;19927;-78
2022/02/18 03:00:19;;;;;;;;;;;12.50;96.60;;;;;;5079674;28;19912;-80
2022/02/18 03:02:45;;;;;;;;;;;12.50;96.40;;;;;;5080039;28;20299;-80
2022/02/18 03:05:11;;;;;;;;;;;12.40;96.20;;;;;;5078907;28;19912;-80
2022/02/18 03:07:37;;;;;;;;;;;12.40;96.20;;;;;;5080323;28;20471;-78
2022/02/18 03:10:03;;;;;;;;;;;12.40;96.00;;;;;;5079625;28;19965;-80
2022/02/18 03:12:29;;;;;;;;;;;12.40;96.10;;;;;;5078801;28;19916;-80
2022/02/18 03:14:54;;;;;;;;;;;12.40;96.20;;;;;;5079127;28;20303;-82
2022/02/18 03:17:20;;;;;;;;;;;12.40;96.00;;;;;;5079978;28;19916;-78
2022/02/18 03:19:46;;;;;;;;;;;12.40;96.50;;;;;;5079362;28;19991;-80
2022/02/18 03:22:11;;;;;;;;;;;12.40;96.50;;;;;;5079619;28;19912;-81
2022/02/18 03:24:37;;;;;;;;;;;12.40;96.60;;;;;;5078507;28;19913;-80
2022/02/18 03:27:03;;;;;;;;;;;12.40;96.80;;;;;;5079773;28;19998;-81
2022/02/18 03:29:28;;;;;;;;;;;12.40;96.80;;;;;;5079668;28;20342;-81
2022/02/18 03:31:54;;;;;;;;;;;12.40;96.60;;;;;;5066503;28;19917;-81
2022/02/18 03:34:21;;;;;;;;;;;12.30;96.80;;;;;;5074829;28;19920;-81
2022/02/18 03:36:46;;;;;;;;;;;12.30;96.80;;;;;;5078179;28;19917;-79
2022/02/18 03:39:12;;;;;;;;;;;12.30;97.10;;;;;;5076988;28;19920;-81
2022/02/18 03:41:38;;;;;;;;;;;12.30;97.10;;;;;;5074899;28;19999;-82
2022/02/18 03:44:06;;;;;;;;;;;12.30;97.00;;;;;;5078680;28;19948;-81
2022/02/18 03:46:33;;;;;;;;;;;12.30;97.20;;;;;;5070547;28;19923;-80
2022/02/18 03:48:58;;;;;;;;;;;12.30;97.00;;;;;;5074011;28;20433;-80
2022/02/18 03:51:24;;;;;;;;;;;12.20;96.90;;;;;;5078845;28;19916;-80
2022/02/18 03:53:50;;;;;;;;;;;12.20;96.80;;;;;;5074145;28;19959;-81
2022/02/18 03:56:16;;;;;;;;;;;12.20;96.80;;;;;;5067723;28;20466;-78
2022/02/18 03:58:42;;;;;;;;;;;12.20;96.80;;;;;;5078174;28;20333;-81
2022/02/18 04:01:08;;;;;;;;;;;12.20;96.90;;;;;;5071904;28;19913;-77
2022/02/18 04:03:34;;;;;;;;;;;12.20;97.00;;;;;;5076192;28;20082;-80
2022/02/18 04:06:00;;;;;;;;;;;12.20;97.20;;;;;;5078313;28;20356;-81
2022/02/18 04:08:26;;;;;;;;;;;12.20;97.00;;;;;;5078021;28;19951;-81
2022/02/18 04:10:52;;;;;;;;;;;12.20;97.20;;;;;;5076432;28;19919;-81
2022/02/18 04:13:17;;;;;;;;;;;12.20;97.00;;;;;;5076759;28;19920;-81
2022/02/18 04:15:43;;;;;;;;;;;12.10;96.90;;;;;;5078919;28;19916;-81
2022/02/18 04:18:09;;;;;;;;;;;12.10;96.60;;;;;;5077299;28;19916;-81
2022/02/18 04:20:34;;;;;;;;;;;12.10;96.90;;;;;;5078265;28;19948;-81
2022/02/18 04:23:00;;;;;;;;;;;12.00;96.70;;;;;;5068597;28;19917;-81
2022/02/18 04:25:26;;;;;;;;;;;12.10;96.70;;;;;;5071384;28;19935;-81
2022/02/18 04:27:55;;;;;;;;;;;12.10;96.90;;;;;;5070623;28;19962;-81
2022/02/18 04:30:21;;;;;;;;;;;12.10;97.10;;;;;;5072460;28;19962;-80
2022/02/18 04:32:47;;;;;;;;;;;12.10;97.00;;;;;;5067708;28;19908;-80
2022/02/18 04:35:13;;;;;;;;;;;12.10;96.90;;;;;;5066537;28;19920;-81
2022/02/18 04:37:39;;;;;;;;;;;12.00;96.80;;;;;;5078654;28;19912;-81
2022/02/18 04:40:05;;;;;;;;;;;12.10;96.70;;;;;;5072941;28;20031;-81
2022/02/18 04:42:31;;;;;;;;;;;12.00;96.70;;;;;;5078054;28;19908;-81
2022/02/18 04:44:57;;;;;;;;;;;12.10;96.80;;;;;;5077866;28;19942;-80
2022/02/18 04:47:23;;;;;;;;;;;12.10;96.80;;;;;;5078200;28;19916;-80
2022/02/18 04:49:48;;;;;;;;;;;12.10;97.00;;;;;;5073947;28;19912;-79
2022/02/18 04:52:14;;;;;;;;;;;12.10;97.00;;;;;;5061586;28;19915;-80
2022/02/18 04:54:40;;;;;;;;;;;12.10;97.30;;;;;;5058009;28;19931;-79
2022/02/18 04:57:06;;;;;;;;;;;12.10;97.20;;;;;;5075804;28;19917;-79
2022/02/18 04:59:32;;;;;;;;;;;12.10;97.30;;;;;;5078004;28;19983;-77
2022/02/18 05:01:57;;;;;;;;;;;12.10;97.50;;;;;;5077495;28;19978;-80
2022/02/18 05:04:24;;;;;;;;;;;12.10;97.60;;;;;;5076418;28;19920;-80
2022/02/18 05:06:50;;;;;;;;;;;12.10;97.80;;;;;;5077630;28;20352;-80
2022/02/18 05:09:15;;;;;;;;;;;12.10;97.80;;;;;;5070424;28;19912;-79
2022/02/18 05:11:41;;;;;;;;;;;12.20;98.20;;;;;;5056638;28;19909;-82
2022/02/18 05:14:06;;;;;;;;;;;12.20;98.10;;;;;;5057385;28;19935;-79
2022/02/18 05:16:32;;;;;;;;;;;12.20;98.10;;;;;;5057792;28;19995;-78
2022/02/18 05:18:58;;;;;;;;;;;12.20;97.90;;;;;;5066789;28;19916;-80
2022/02/18 05:21:24;;;;;;;;;;;12.20;97.90;;;;;;5057686;28;19908;-78
2022/02/18 05:23:50;;;;;;;;;;;12.20;97.90;;;;;;5057720;28;19909;-79
2022/02/18 05:26:15;;;;;;;;;;;12.20;98.10;;;;;;5057757;28;19916;-78
2022/02/18 05:28:41;;;;;;;;;;;12.20;98.00;;;;;;5057758;28;19916;-77
2022/02/18 05:31:06;;;;;;;;;;;12.20;98.50;;;;;;5057735;28;19915;-77
2022/02/18 05:33:32;;;;;;;;;;;12.20;98.80;;;;;;5073242;28;19913;-80
2022/02/18 05:35:58;;;;;;;;;;;12.20;98.80;;;;;;5071702;28;19935;-79
2022/02/18 05:38:25;;;;;;;;;;;12.20;98.60;;;;;;5075451;28;19922;-78
2022/02/18 05:40:51;;;;;;;;;;;12.20;98.50;;;;;;5074734;28;19999;-77
2022/02/18 05:43:17;;;;;;;;;;;12.20;98.60;;;;;;5072724;28;19959;-78
2022/02/18 05:45:42;;;;;;;;;;;12.20;98.50;;;;;;5067763;28;19916;-77
2022/02/18 05:48:08;;;;;;;;;;;12.20;98.60;;;;;;5066549;28;19913;-80
2022/02/18 05:50:34;;;;;;;;;;;12.20;98.70;;;;;;5076451;28;20582;-76
2022/02/18 05:52:59;;;;;;;;;;;12.20;99.00;;;;;;5074324;28;20003;-80
2022/02/18 05:55:25;;;;;;;;;;;12.20;98.50;;;;;;5070602;28;19962;-80
2022/02/18 05:57:51;;;;;;;;;;;12.20;98.50;;;;;;5076233;28;19966;-78
2022/02/18 06:00:16;;;;;;;;;;;12.20;98.60;;;;;;5077786;28;20315;-79
2022/02/18 06:02:43;;;;;;;;;;;12.20;98.40;;;;;;5075031;28;19912;-77
2022/02/18 06:05:09;;;;;;;;;;;12.20;98.60;;;;;;5074416;28;20367;-78
2022/02/18 06:07:35;;;;;;;;;;;12.20;98.40;;;;;;5075166;28;19919;-79
2022/02/18 06:10:02;;;;;;;;;;;12.20;98.50;;;;;;5076139;28;19923;-78
2022/02/18 06:12:28;;;;;;;;;;;12.20;98.40;;;;;;5076803;28;20436;-78
2022/02/18 06:14:53;;;;;;;;;;;12.20;98.50;;;;;;5076601;28;19912;-78
2022/02/18 06:17:19;;;;;;;;;;;12.20;98.70;;;;;;5075683;28;19931;-76
2022/02/18 06:19:45;;;;;;;;;;;12.10;98.80;;;;;;5076410;28;19944;-78
2022/02/18 06:22:11;;;;;;;;;;;12.20;98.90;;;;;;5074511;28;19913;-79
2022/02/18 06:24:37;;;;;;;;;;;12.20;98.90;;;;;;5072705;28;19913;-81
2022/02/18 06:27:03;;;;;;;;;;;12.20;98.70;;;;;;5075499;28;19916;-81
2022/02/18 06:29:28;;;;;;;;;;;12.20;98.80;;;;;;5077456;28;20044;-80
2022/02/18 06:31:54;;;;;;;;;;;12.20;98.70;;;;;;5079677;28;19912;-79
2022/02/18 06:34:20;;;;;;;;;;;12.20;98.80;;;;;;5079478;28;19916;-85
2022/02/18 06:36:45;;;;;;;;;;;12.20;98.90;;;;;;5062386;28;19916;-75
2022/02/18 06:39:11;;;;;;;;;;;12.20;98.90;;;;;;5070227;28;19913;-77
2022/02/18 06:41:37;;;;;;;;;;;12.20;99.10;;;;;;5080033;28;19944;-85
2022/02/18 06:44:02;;;;;;;;;;;12.20;98.90;;;;;;5079411;28;19960;-80
2022/02/18 06:46:28;;;;;;;;;;;12.20;99.20;;;;;;5072284;28;19923;-76
2022/02/18 06:48:54;;;;;;;;;;;12.20;99.50;;;;;;5073603;28;20011;-87
2022/02/18 06:51:19;;;;;;;;;;;12.20;99.50;;;;;;5080567;28;19956;-80
2022/02/18 06:53:45;;;;;;;;;;;12.10;99.50;;;;;;5079503;28;19916;-76
2022/02/18 06:56:11;;;;;;;;;;;12.10;99.50;;;;;;5079258;28;19951;-77
2022/02/18 06:58:37;;;;;;;;;;;12.10;99.60;;;;;;5078021;28;20299;-76
2022/02/18 07:01:02;;;;;;;;;;;12.10;99.70;;;;;;5079449;28;19912;-79
2022/02/18 07:03:28;;;;;;;;;;;12.10;99.80;;;;;;5078346;28;20046;-80
2022/02/18 07:05:55;;;;;;;;;;;12.10;99.90;;;;;;5076788;28;20441;-78
2022/02/18 07:08:21;;;;;;;;;;;12.10;99.70;;;;;;5077271;28;20345;-74
2022/02/18 07:10:47;;;;;;;;;;;12.10;99.90;;;;;;5078376;28;19916;-73
2022/02/18 07:13:12;;;;;;;;;;;12.10;99.80;;;;;;5080169;28;19916;-82
2022/02/18 07:15:38;;;;;;;;;;;12.10;99.90;;;;;;5079163;28;19913;-85
2022/02/18 07:18:04;;;;;;;;;;;12.20;99.90;;;;;;5077114;28;19916;-86
2022/02/18 07:20:29;;;;;;;;;;;12.20;99.90;;;;;;5079489;28;19909;-81
2022/02/18 07:22:55;;;;;;;;;;;12.10;99.90;;;;;;5079685;28;19909;-79
2022/02/18 07:25:22;;;;;;;;;;;12.20;99.90;;;;;;5079049;28;19979;-79
2022/02/18 07:27:48;;;;;;;;;;;12.20;99.90;;;;;;5077521;28;19913;-77
2022/02/18 07:30:14;;;;;;;;;;;12.20;99.90;;;;;;5078420;28;19919;-82
2022/02/18 07:32:40;;;;;;;;;;;12.10;99.90;;;;;;5075464;28;20472;-77
2022/02/18 07:35:06;;;;;;;;;;;12.20;99.90;;;;;;5079515;28;19947;-77
2022/02/18 07:37:32;;;;;;;;;;;12.20;99.90;;;;;;5077897;28;19919;-76
2022/02/18 07:39:58;;;;;;;;;;;12.20;99.90;;;;;;5079529;28;19913;-78
2022/02/18 07:42:24;;;;;;;;;;;12.20;99.90;;;;;;5079095;28;20005;-75
2022/02/18 07:44:50;;;;;;;;;;;12.20;99.90;;;;;;5060232;28;19948;-79
2022/02/18 07:47:16;;;;;;;;;;;12.00;98.40;;;;;;5074496;28;21089;-79
2022/02/18 07:49:43;;;;;;;;;;;11.80;97.80;;;;;;5078207;28;20363;-79
2022/02/18 07:52:08;;;;;;;;;;;11.70;97.60;;;;;;5079266;28;20444;-78
2022/02/18 07:54:34;;;;;;;;;;;11.60;97.80;;;;;;5077170;28;19978;-79
2022/02/18 07:57:00;;;;;;;;;;;11.50;97.30;;;;;;5078216;28;19921;-74
2022/02/18 07:59:26;;;;;;;;;;;11.50;97.10;;;;;;5078858;28;19916;-74
2022/02/18 08:01:51;;;;;;;;;;;11.40;97.00;;;;;;5076706;28;19958;-74
2022/02/18 08:04:17;;;;;;;;;;;11.40;96.00;;;;;;5073544;28;19916;-75
2022/02/18 08:06:43;;;;;;;;;;;11.40;95.20;;;;;;5073021;28;19912;-80
2022/02/18 08:09:08;;;;;;;;;;;11.40;94.60;;;;;;5077082;28;19978;-84
2022/02/18 08:11:34;;;;;;;;;;;11.30;93.70;;;;;;5078405;28;19974;-81
2022/02/18 08:14:00;;;;;;;;;;;11.20;93.60;;;;;;5076781;28;20440;-83
2022/02/18 08:16:27;;;;;;;;;;;11.20;92.90;;;;;;5078044;28;19913;-82
2022/02/18 08:18:54;;;;;;;;;;;11.20;92.80;;;;;;5074353;28;19915;-84
2022/02/18 08:21:19;;;;;;;;;;;11.10;92.00;;;;;;5075265;28;19912;-82
2022/02/18 08:23:46;;;;;;;;;;;11.10;92.20;;;;;;5074291;28;19948;-84
2022/02/18 08:26:12;;;;;;;;;;;11.10;92.00;;;;;;5077073;28;19912;-78
2022/02/18 08:28:38;;;;;;;;;;;11.10;92.40;;;;;;5077314;28;19909;-80
2022/02/18 08:31:04;;;;;;;;;;;11.20;92.50;;;;;;5077130;28;19946;-79
2022/02/18 08:33:30;;;;;;;;;;;11.20;92.10;;;;;;5078258;28;19920;-79
2022/02/18 08:35:56;;;;;;;;;;;11.30;92.10;;;;;;5077100;28;19908;-80
2022/02/18 08:38:22;;;;;;;;;;;11.30;92.20;;;;;;5076773;28;19913;-79
2022/02/18 08:40:48;;;;;;;;;;;11.30;92.20;;;;;;5070853;28;19958;-78
2022/02/18 08:43:13;;;;;;;;;;;11.30;91.80;;;;;;5077208;28;20397;-77
2022/02/18 08:45:43;;;;;;;;;;;11.30;92.00;;;;;;5076978;28;20398;-78
2022/02/18 08:48:08;;;;;;;;;;;11.20;91.90;;;;;;5075036;28;19912;-78
2022/02/18 08:50:34;;;;;;;;;;;11.20;91.50;;;;;;5077683;28;20003;-77
2022/02/18 08:53:03;;;;;;;;;;;11.10;91.20;;;;;;5078009;28;20268;-76
2022/02/18 08:55:29;;;;;;;;;;;11.10;91.30;;;;;;5076555;28;19909;-77
2022/02/18 08:57:57;;;;;;;;;;;11.10;91.10;;;;;;5073845;28;20023;-77
2022/02/18 09:00:23;;;;;;;;;;;11.10;91.50;;;;;;5073294;28;20268;-77
2022/02/18 09:02:49;;;;;;;;;;;11.10;91.50;;;;;;5077709;28;19908;-78
2022/02/18 09:05:16;;;;;;;;;;;11.10;90.60;;;;;;5073866;28;19928;-78
2022/02/18 09:07:44;;;;;;;;;;;11.00;90.40;;;;;;5072512;28;19918;-78
2022/02/18 09:10:10;;;;;;;;;;;11.00;90.40;;;;;;5076916;28;19958;-76
2022/02/18 09:12:39;;;;;;;;;;;10.90;90.20;;;;;;5072075;28;19916;-77
2022/02/18 09:15:05;;;;;;;;;;;11.00;90.40;;;;;;5074695;28;19916;-80
2022/02/18 09:17:31;;;;;;;;;;;10.90;90.10;;;;;;5077646;28;19938;-80
2022/02/18 09:19:58;;;;;;;;;;;10.90;90.00;;;;;;5075754;28;19919;-81
2022/02/18 09:22:24;;;;;;;;;;;10.90;89.90;;;;;;5074576;28;19909;-81
2022/02/18 09:24:50;;;;;;;;;;;10.90;88.90;;;;;;5072866;28;19912;-88
2022/02/18 09:27:16;;;;;;;;;;;10.80;88.90;;;;;;5075308;28;20043;-78
2022/02/18 09:29:41;;;;;;;;;;;10.90;88.80;;;;;;5075954;28;19913;-81
2022/02/18 09:32:07;;;;;;;;;;;10.80;88.50;;;;;;5076315;28;19919;-81
2022/02/18 09:34:33;;;;;;;;;;;10.80;88.80;;;;;;5075080;28;19915;-79
2022/02/18 09:36:59;;;;;;;;;;;10.90;89.00;;;;;;5071763;28;19913;-78
2022/02/18 09:39:25;;;;;;;;;;;10.80;88.80;;;;;;5074366;28;19917;-80
2022/02/18 09:41:51;;;;;;;;;;;10.90;87.00;;;;;;5076273;28;19908;-80
2022/02/18 09:44:17;;;;;;;;;;;10.80;86.80;;;;;;5077060;28;19919;-80
2022/02/18 09:46:45;;;;;;;;;;;10.90;86.70;;;;;;5077534;28;19946;-79
2022/02/18 09:49:11;;;;;;;;;;;10.90;86.00;;;;;;5075898;28;19909;-81
2022/02/18 09:51:38;;;;;;;;;;;10.90;86.10;;;;;;5075838;28;19920;-80
2022/02/18 09:54:04;;;;;;;;;;;11.00;85.90;;;;;;5076006;28;19909;-81
2022/02/18 09:56:33;;;;;;;;;;;11.00;85.30;;;;;;5076177;28;19909;-80
2022/02/18 09:59:03;;;;;;;;;;;11.00;85.40;;;;;;5077545;28;19908;-83
2022/02/18 10:01:29;;;;;;;;;;;11.10;84.70;;;;;;5080844;28;19909;-79
2022/02/18 10:03:54;;;;;;;;;;;11.20;85.50;;;;;;5081032;28;20205;-78
2022/02/18 10:06:20;;;;;;;;;;;11.30;85.60;;;;;;5080009;28;19918;-78
2022/02/18 10:08:47;;;;;;;;;;;11.30;82.90;;;;;;5070690;28;19964;-79
2022/02/18 10:11:12;;;;;;;;;;;11.40;82.20;;;;;;5064511;28;19916;-80
2022/02/18 10:13:39;;;;;;;;;;;11.40;82.00;;;;;;5061591;28;19908;-79
2022/02/18 10:16:10;;;;;;;;;;;11.40;82.60;;;;;;5061123;28;20004;-78
2022/02/18 10:18:46;;;;;;;;;;;11.50;82.00;;;;;;5061745;28;20339;-79
2022/02/18 10:21:13;;;;;;;;;;;11.60;80.90;;;;;;5059887;28;19940;-80
2022/02/18 10:23:38;;;;;;;;;;;11.70;80.80;;;;;;5070539;28;19944;-78
2022/02/18 10:26:04;;;;;;;;;;;11.80;78.20;;;;;;5071288;28;19913;-79
2022/02/18 10:28:30;;;;;;;;;;;11.90;77.90;;;;;;5061279;28;19908;-79
2022/02/18 10:31:04;;;;;;;;;;;12.00;78.60;;;;;;5059980;28;19909;-80
2022/02/18 10:33:30;;;;;;;;;;;12.00;76.50;;;;;;5060995;28;20269;-79
2022/02/18 10:36:01;;;;;;;;;;;12.00;77.80;;;;;;5060731;28;19913;-78
2022/02/18 10:38:33;;;;;;;;;;;11.90;75.30;;;;;;5059561;28;19913;-79
2022/02/18 10:40:59;;;;;;;;;;;11.90;74.80;;;;;;5061170;28;19909;-78
2022/02/18 10:43:26;;;;;;;;;;;11.90;75.90;;;;;;5059363;28;19956;-79
2022/02/18 10:45:59;;;;;;;;;;;11.80;75.30;;;;;;5073859;28;19916;-82
2022/02/18 10:48:26;;;;;;;;;;;11.80;74.40;;;;;;5078537;28;19991;-80
2022/02/18 10:51:19;;;;;;;;;;;11.80;73.80;;;;;;5076426;28;19920;-76
2022/02/18 10:53:47;;;;;;;;;;;11.80;75.40;;;;;;5079524;28;19920;-83
2022/02/18 10:56:14;;;;;;;;;;;11.90;74.00;;;;;;5076532;28;19913;-84
2022/02/18 10:58:41;;;;;;;;;;;11.90;75.60;;;;;;5079665;28;19946;-85
2022/02/18 11:01:08;;;;;;;;;;;12.00;74.80;;;;;;5077880;28;19921;-84
2022/02/18 11:03:35;;;;;;;;;;;11.90;74.70;;;;;;5081132;28;19935;-82
2022/02/18 11:06:14;;;;;;;;;;;11.90;76.40;;;;;;5077746;28;19978;-85
2022/02/18 11:08:50;;;;;;;;;;;11.90;76.20;;;;;;5078786;28;20387;-80
2022/02/18 11:11:16;;;;;;;;;;;11.80;76.00;;;;;;5069296;28;19912;-79
2022/02/18 11:13:43;;;;;;;;;;;11.80;77.00;;;;;;5076474;28;19912;-78
2022/02/18 11:16:11;;;;;;;;;;;11.90;76.20;;;;;;5079124;28;19920;-78
2022/02/18 11:18:37;;;;;;;;;;;11.80;75.90;;;;;;5078928;28;19924;-77
2022/02/18 11:21:03;;;;;;;;;;;11.90;76.60;;;;;;5079193;28;19919;-77
2022/02/18 11:23:30;;;;;;;;;;;12.00;75.30;;;;;;5078816;28;20383;-79
2022/02/18 11:25:56;;;;;;;;;;;12.10;75.60;;;;;;5076765;28;19916;-79
2022/02/18 11:28:21;;;;;;;;;;;12.30;75.50;;;;;;5078369;28;20294;-83
2022/02/18 11:30:50;;;;;;;;;;;12.50;75.90;;;;;;5077750;28;19912;-83
2022/02/18 11:33:19;;;;;;;;;;;12.50;73.30;;;;;;5076855;28;20367;-82
2022/02/18 11:35:48;;;;;;;;;;;12.50;71.90;;;;;;5077659;28;19959;-83
2022/02/18 11:38:20;;;;;;;;;;;12.50;72.40;;;;;;5079205;28;19970;-83
2022/02/18 11:41:08;;;;;;;;;;;12.50;70.60;;;;;;5066904;28;20379;-83
2022/02/18 11:43:34;;;;;;;;;;;12.50;69.50;;;;;;5079598;28;20256;-84
2022/02/18 11:46:01;;;;;;;;;;;12.60;68.40;;;;;;5079534;28;19991;-85
2022/02/18 11:48:53;;;;;;;;;;;12.50;67.00;;;;;;5079538;28;19915;-85
2022/02/18 11:51:21;;;;;;;;;;;12.50;66.40;;;;;;5078340;28;19943;-85
2022/02/18 11:53:52;;;;;;;;;;;12.50;66.90;;;;;;5078120;28;19916;-84
2022/02/18 11:56:38;;;;;;;;;;;12.50;66.90;;;;;;5079364;28;19909;-84
2022/02/18 11:59:04;;;;;;;;;;;12.60;66.00;;;;;;5078204;28;19916;-85
2022/02/18 12:01:59;;;;;;;;;;;12.70;66.00;;;;;;5079217;28;19909;-84
2022/02/18 12:04:25;;;;;;;;;;;12.60;65.20;;;;;;5078800;28;20006;-84
2022/02/18 12:07:15;;;;;;;;;;;12.70;65.60;;;;;;5065772;28;19956;-83
2022/02/18 12:09:59;;;;;;;;;;;12.90;66.80;;;;;;5073537;28;20410;-84
2022/02/18 12:12:29;;;;;;;;;;;13.20;66.70;;;;;;5079350;28;19912;-84
2022/02/18 12:14:55;;;;;;;;;;;13.50;64.80;;;;;;5079021;28;20406;-84
2022/02/18 12:17:25;;;;;;;;;;;13.60;65.20;;;;;;5079046;28;19916;-87
2022/02/18 12:19:51;;;;;;;;;;;13.70;64.40;;;;;;5078584;28;19908;-86
2022/02/18 12:22:34;;;;;;;;;;;13.70;62.40;;;;;;5079047;28;19909;-88
2022/02/18 12:25:01;;;;;;;;;;;13.90;63.80;;;;;;5065256;28;19955;-86
2022/02/18 12:27:32;;;;;;;;;;;14.00;63.30;;;;;;5078812;28;19908;-87
2022/02/18 12:30:00;;;;;;;;;;;14.10;63.60;;;;;;5078973;28;20389;-87
2022/02/18 12:32:26;;;;;;;;;;;14.10;63.40;;;;;;5078507;28;19992;-88
2022/02/18 12:35:05;;;;;;;;;;;14.30;64.60;;;;;;5078564;28;19955;-87
2022/02/18 12:37:31;;;;;;;;;;;14.50;65.20;;;;;;5078448;28;19916;-88
2022/02/18 12:39:59;;;;;;;;;;;14.50;61.70;;;;;;5070483;28;20008;-87
2022/02/18 12:42:26;;;;;;;;;;;14.60;63.60;;;;;;5076372;28;19920;-88
2022/02/18 12:45:01;;;;;;;;;;;14.90;64.40;;;;;;5095384;27;19912;-87
2022/02/18 12:47:28;;;;;;;;;;;15.30;63.50;;;;;;5062016;28;19921;-86
2022/02/18 12:49:55;;;;;;;;;;;15.60;61.40;;;;;;5074854;28;19915;-88
2022/02/18 12:52:25;;;;;;;;;;;15.80;59.10;;;;;;5074970;28;19960;-86
2022/02/18 12:54:52;;;;;;;;;;;15.70;58.70;;;;;;5074887;28;19916;-86
2022/02/18 12:57:18;;;;;;;;;;;15.70;57.90;;;;;;5074939;28;19920;-86
2022/02/18 12:59:45;;;;;;;;;;;15.60;57.30;;;;;;5074922;28;19915;-87
2022/02/18 13:02:11;;;;;;;;;;;15.50;58.30;;;;;;5074715;28;20005;-88
2022/02/18 13:04:38;;;;;;;;;;;15.10;57.00;;;;;;5074354;28;19951;-86
2022/02/18 13:07:08;;;;;;;;;;;15.00;59.60;;;;;;5074527;28;19913;-88
2022/02/18 13:09:35;;;;;;;;;;;15.10;58.50;;;;;;5073306;28;19917;-86
2022/02/18 13:12:01;;;;;;;;;;;15.40;59.20;;;;;;5074531;28;19912;-88
2022/02/18 13:14:27;;;;;;;;;;;15.60;57.50;;;;;;5073190;28;19909;-85
2022/02/18 13:16:53;;;;;;;;;;;15.80;55.80;;;;;;5074471;28;19909;-84
2022/02/18 13:19:20;;;;;;;;;;;15.80;56.00;;;;;;5074105;28;19909;-84
2022/02/18 13:21:46;;;;;;;;;;;15.70;55.00;;;;;;5072989;28;19936;-85
2022/02/18 13:24:11;;;;;;;;;;;15.70;57.10;;;;;;5074158;28;20295;-85
2022/02/18 13:26:37;;;;;;;;;;;15.90;56.60;;;;;;5074205;28;19908;-84
2022/02/18 13:29:02;;;;;;;;;;;15.70;55.20;;;;;;5074510;28;19908;-85
2022/02/18 13:31:28;;;;;;;;;;;15.70;54.70;;;;;;5074097;28;19908;-83
2022/02/18 13:33:54;;;;;;;;;;;15.60;55.10;;;;;;5073782;28;19963;-85
2022/02/18 13:36:24;;;;;;;;;;;15.50;54.60;;;;;;5073978;28;19916;-84
2022/02/18 13:38:54;;;;;;;;;;;15.40;55.10;;;;;;5074150;28;19948;-85
2022/02/18 13:41:20;;;;;;;;;;;15.20;54.80;;;;;;5073191;28;19909;-83
2022/02/18 13:43:47;;;;;;;;;;;15.20;56.10;;;;;;5084051;28;19921;-84
2022/02/18 13:46:33;;;;;;;;;;;15.30;56.50;;;;;;5089286;28;20398;-83
2022/02/18 13:49:00;;;;;;;;;;;15.20;56.00;;;;;;5077455;28;19915;-84
2022/02/18 13:51:26;;;;;;;;;;;15.10;54.30;;;;;;5094263;28;19994;-84
2022/02/18 13:53:52;;;;;;;;;;;14.80;54.60;;;;;;5093969;28;19909;-84
2022/02/18 13:56:25;;;;;;;;;;;14.60;54.30;;;;;;5080904;28;20386;-83
2022/02/18 13:58:51;;;;;;;;;;;14.40;53.80;;;;;;5080300;28;19920;-83
2022/02/18 14:01:18;;;;;;;;;;;14.30;54.60;;;;;;5080568;28;20007;-84
2022/02/18 14:03:53;;;;;;;;;;;14.00;54.50;;;;;;5079834;28;19979;-84
2022/02/18 14:06:19;;;;;;;;;;;13.90;55.60;;;;;;5080446;28;20355;-85
2022/02/18 14:08:54;;;;;;;;;;;13.80;55.70;;;;;;5080156;28;19915;-85
2022/02/18 14:11:20;;;;;;;;;;;13.70;55.40;;;;;;5080378;28;19916;-87
2022/02/18 14:13:45;;;;;;;;;;;13.70;55.90;;;;;;5062058;28;19908;-83